createdAt,value
2023-02-06T00:03:21.946Z,26.02
2023-02-06T00:23:32.207Z,25.35
2023-02-06T00:33:38.832Z,26.05
2023-02-06T00:38:41.558Z,21.38
2023-02-06T00:48:46.813Z,24.13
2023-02-06T00:58:55.038Z,20.98
2023-02-06T01:14:04.038Z,22.52
2023-02-06T01:19:06.713Z,24.67
2023-02-06T01:29:13.362Z,25.60
2023-02-06T01:34:16.389Z,28.25
2023-02-06T01:39:19.148Z,30.48
2023-02-06T01:44:26.621Z,32.83
2023-02-06T01:49:37.156Z,26.00
2023-02-06T01:54:39.791Z,30.35
2023-02-06T01:59:49.710Z,31.63
2023-02-06T02:04:52.707Z,32.33
2023-02-06T02:09:55.412Z,38.53
2023-02-06T02:14:58.478Z,40.03
2023-02-06T02:20:38.116Z,32.35
2023-02-06T02:25:59.086Z,27.73
2023-02-06T02:31:23.383Z,28.70
2023-02-06T02:36:39.039Z,22.40
2023-02-06T02:41:48.890Z,35.00
2023-02-06T02:46:53.432Z,24.73
2023-02-06T02:51:57.210Z,36.38
2023-02-06T02:57:14.780Z,22.05
2023-02-06T03:02:26.645Z,18.20
2023-02-06T03:07:41.256Z,13.55
2023-02-06T03:13:16.671Z,13.35
2023-02-06T03:18:23.968Z,14.25
2023-02-06T03:23:31.189Z,15.25
2023-02-06T03:28:40.783Z,18.67
2023-02-06T03:33:50.810Z,20.58
2023-02-06T03:38:54.212Z,58.13
2023-02-06T03:43:57.604Z,17.58
2023-02-06T03:49:02.102Z,13.93
2023-02-06T03:54:05.609Z,10.00
2023-02-06T03:59:08.410Z,11.68
2023-02-06T04:04:11.166Z,13.27
2023-02-06T04:09:13.826Z,9.60
2023-02-06T04:14:16.967Z,7.13
2023-02-06T04:19:19.872Z,6.28
2023-02-06T04:24:22.610Z,7.67
2023-02-06T04:29:25.367Z,10.70
2023-02-06T04:34:31.983Z,10.57
2023-02-06T04:39:35.064Z,9.45
2023-02-06T04:44:38.843Z,11.77
2023-02-06T04:49:41.477Z,9.27
2023-02-06T04:54:44.139Z,12.85
2023-02-06T04:59:46.847Z,7.57
2023-02-06T05:04:49.526Z,10.43
2023-02-06T05:09:52.236Z,8.48
2023-02-06T05:14:55.641Z,11.52
2023-02-06T05:19:58.801Z,11.23
2023-02-06T05:25:01.485Z,10.60
2023-02-06T05:30:06.144Z,11.68
2023-02-06T05:35:09.023Z,11.27
2023-02-06T05:40:12.279Z,11.68
2023-02-06T05:45:17.974Z,9.50
2023-02-06T05:50:21.248Z,11.05
2023-02-06T05:55:24.004Z,9.90
2023-02-06T06:00:26.942Z,48.83
2023-02-06T06:05:29.789Z,54.13
2023-02-06T06:10:32.483Z,56.28
2023-02-06T06:15:35.316Z,40.60
2023-02-06T06:20:38.265Z,43.38
2023-02-06T06:25:40.898Z,35.50
2023-02-06T06:30:43.765Z,34.13
2023-02-06T06:35:46.568Z,30.35
2023-02-06T06:40:49.297Z,27.38
2023-02-06T06:45:52.056Z,27.80
2023-02-06T06:50:55.032Z,24.25
2023-02-06T06:56:04.177Z,22.50
2023-02-06T07:01:08.848Z,24.35
2023-02-06T07:06:12.214Z,26.73
2023-02-06T07:11:18.931Z,25.87
2023-02-06T07:16:21.715Z,27.35
2023-02-06T07:21:24.359Z,30.55
2023-02-06T07:26:27.116Z,28.23
2023-02-06T07:31:29.859Z,32.80
2023-02-06T07:36:32.726Z,35.10
2023-02-06T07:41:35.532Z,31.60
2023-02-06T07:46:38.159Z,29.35
2023-02-06T07:51:41.902Z,29.33
2023-02-06T07:56:44.556Z,32.20
2023-02-06T08:01:47.353Z,30.83
2023-02-06T08:06:53.202Z,31.65
2023-02-06T08:11:55.815Z,37.25
2023-02-06T08:16:58.475Z,35.92
2023-02-06T08:22:01.204Z,37.17
2023-02-06T08:27:03.856Z,34.35
2023-02-06T08:32:06.727Z,31.48
2023-02-06T08:37:09.436Z,33.80
2023-02-06T08:42:13.086Z,36.20
2023-02-06T08:47:16.913Z,40.78
2023-02-06T08:52:19.731Z,31.95
2023-02-06T08:57:22.700Z,37.17
2023-02-06T09:02:25.547Z,37.90
2023-02-06T09:07:28.235Z,33.30
2023-02-06T09:12:30.943Z,29.10
2023-02-06T09:17:34.444Z,29.52
2023-02-06T09:22:37.107Z,30.87
2023-02-06T09:27:39.892Z,25.23
2023-02-06T09:32:43.643Z,27.50
2023-02-06T09:37:46.366Z,29.80
2023-02-06T09:42:49.059Z,22.33
2023-02-06T09:48:00.230Z,25.00
2023-02-06T09:53:02.947Z,12.50
2023-02-06T09:58:24.084Z,12.20
2023-02-06T10:03:51.701Z,10.23
2023-02-06T10:09:03.211Z,12.00
2023-02-06T10:14:38.034Z,6.28
2023-02-06T10:19:47.024Z,6.00
2023-02-06T10:25:14.377Z,4.78
2023-02-06T10:30:20.062Z,4.78
2023-02-06T10:35:51.065Z,4.22
2023-02-06T10:41:19.002Z,4.22
2023-02-06T10:46:30.841Z,6.10
2023-02-06T10:51:36.487Z,6.28
2023-02-06T10:56:48.030Z,6.65
2023-02-06T11:01:54.632Z,7.82
2023-02-06T11:07:02.642Z,5.63
2023-02-06T11:12:06.339Z,5.65
2023-02-06T11:17:09.174Z,5.03
2023-02-06T11:22:13.008Z,5.03
2023-02-06T11:27:20.897Z,6.05
2023-02-06T11:32:30.334Z,5.38
2023-02-06T11:37:39.040Z,3.63
2023-02-06T11:42:41.666Z,6.05
2023-02-06T11:47:44.384Z,5.80
2023-02-06T11:52:47.783Z,7.45
2023-02-06T11:58:14.849Z,7.93
2023-02-06T12:03:40.440Z,7.38
2023-02-06T12:08:58.150Z,6.57
2023-02-06T12:14:12.418Z,8.05
2023-02-06T12:24:49.014Z,7.95
2023-02-06T12:30:08.823Z,6.75
2023-02-06T12:35:22.116Z,6.15
2023-02-06T12:40:49.266Z,6.70
2023-02-06T12:46:04.590Z,7.50
2023-02-06T12:51:12.957Z,4.93
2023-02-06T12:56:33.933Z,7.65
2023-02-06T13:01:49.977Z,8.38
2023-02-06T13:07:00.272Z,8.27
2023-02-06T13:12:16.135Z,8.80
2023-02-06T13:17:22.320Z,8.57
2023-02-06T13:23:17.046Z,9.43
2023-02-06T13:28:22.615Z,7.53
2023-02-06T13:33:26.447Z,8.85
2023-02-06T13:38:35.011Z,7.05
2023-02-06T13:43:38.127Z,7.05
2023-02-06T13:48:47.007Z,7.03
2023-02-06T13:54:01.868Z,8.70
2023-02-06T13:59:12.275Z,8.15
2023-02-06T14:04:24.586Z,5.60
2023-02-06T14:10:11.905Z,9.95
2023-02-06T14:15:21.345Z,10.95
2023-02-06T14:20:53.059Z,10.48
2023-02-06T14:26:03.483Z,9.67
2023-02-06T14:31:18.876Z,9.52
2023-02-06T14:36:32.163Z,8.95
2023-02-06T14:41:39.842Z,6.18
2023-02-06T14:46:42.657Z,9.57
2023-02-06T14:51:50.025Z,9.75
2023-02-06T14:56:57.441Z,8.32
2023-02-06T15:02:13.171Z,9.60
2023-02-06T15:07:28.812Z,10.30
2023-02-06T15:12:32.475Z,10.30
2023-02-06T15:17:35.244Z,10.90
2023-02-06T15:22:37.955Z,8.98
2023-02-06T15:27:40.734Z,13.40
2023-02-06T15:32:49.223Z,9.55
2023-02-06T15:37:53.668Z,10.93
2023-02-06T15:42:56.574Z,10.20
2023-02-06T15:48:00.407Z,10.30
2023-02-06T15:58:21.070Z,10.48
2023-02-06T16:03:27.433Z,9.70
2023-02-06T16:08:35.653Z,10.63
2023-02-06T16:13:38.780Z,11.48
2023-02-06T16:18:41.471Z,10.80
2023-02-06T16:23:45.493Z,19.75
2023-02-06T16:29:16.686Z,13.55
2023-02-06T16:34:31.044Z,10.00
2023-02-06T16:39:33.771Z,9.48
2023-02-06T16:44:44.591Z,9.00
2023-02-06T16:49:48.735Z,9.30
2023-02-06T16:54:51.470Z,7.70
2023-02-06T16:59:54.175Z,10.00
2023-02-06T17:04:57.411Z,9.40
2023-02-06T17:10:02.227Z,9.18
2023-02-06T17:15:06.994Z,9.07
2023-02-06T17:25:24.868Z,8.63
2023-02-06T17:30:28.023Z,10.43
2023-02-06T17:35:31.604Z,11.77
2023-02-06T17:40:36.981Z,9.02
2023-02-06T17:45:40.200Z,8.77
2023-02-06T17:50:43.254Z,9.38
2023-02-06T17:55:46.094Z,11.40
2023-02-06T18:00:50.136Z,12.20
2023-02-06T18:06:02.954Z,9.20
2023-02-06T18:11:16.666Z,10.73
2023-02-06T18:16:21.986Z,9.88
2023-02-06T18:21:25.056Z,8.98
2023-02-06T18:26:28.131Z,8.60
2023-02-06T18:31:33.594Z,10.20
2023-02-06T18:36:37.181Z,9.30
2023-02-06T18:47:00.728Z,11.25
2023-02-06T18:52:04.366Z,9.50
2023-02-06T19:02:11.682Z,8.43
2023-02-06T19:07:15.720Z,11.50
2023-02-06T19:12:18.365Z,10.32
2023-02-06T19:17:21.270Z,12.47
2023-02-06T19:22:24.775Z,9.73
2023-02-06T19:27:27.657Z,9.93
2023-02-06T19:32:32.566Z,10.40
2023-02-06T19:37:35.186Z,10.43
2023-02-06T19:42:39.039Z,8.17
2023-02-06T19:47:41.709Z,11.13
2023-02-06T19:52:44.336Z,11.03
2023-02-06T19:57:47.041Z,8.10
2023-02-06T20:02:49.945Z,8.43
2023-02-06T20:07:57.128Z,7.78
2023-02-06T20:13:01.130Z,12.05
2023-02-06T20:18:03.841Z,9.63
2023-02-06T20:23:07.501Z,7.93
2023-02-06T20:28:10.194Z,9.02
2023-02-06T20:33:12.903Z,10.77
2023-02-06T20:38:15.656Z,12.27
2023-02-06T20:43:18.320Z,11.77
2023-02-06T20:48:20.959Z,8.10
2023-02-06T20:53:23.789Z,9.43
2023-02-06T20:58:26.962Z,9.93
2023-02-06T21:03:29.574Z,10.38
2023-02-06T21:08:32.465Z,9.77
2023-02-06T21:13:35.357Z,11.32
2023-02-06T21:18:38.231Z,7.85
2023-02-06T21:23:42.351Z,10.07
2023-02-06T21:28:46.594Z,12.25
2023-02-06T21:33:50.297Z,11.15
2023-02-06T21:38:52.930Z,12.52
2023-02-06T21:43:55.605Z,11.70
2023-02-06T21:48:58.290Z,8.50
2023-02-06T21:54:01.054Z,10.00
2023-02-06T21:59:05.301Z,11.43
2023-02-06T22:04:08.706Z,13.07
2023-02-06T22:14:16.927Z,10.32
2023-02-06T22:19:19.841Z,13.85
2023-02-06T22:24:22.658Z,13.70
2023-02-06T22:29:25.413Z,13.85
2023-02-06T22:34:28.024Z,12.47
2023-02-06T22:39:30.694Z,15.33
2023-02-06T22:44:33.423Z,13.57
2023-02-06T22:49:36.301Z,13.23
2023-02-06T22:54:38.983Z,14.77
2023-02-06T22:59:41.669Z,11.70
2023-02-06T23:04:44.350Z,12.30
2023-02-06T23:09:46.984Z,16.17
2023-02-06T23:14:49.661Z,11.70
2023-02-06T23:19:52.424Z,14.53
2023-02-06T23:24:55.193Z,13.93
2023-02-06T23:29:58.003Z,11.37
2023-02-06T23:35:00.730Z,10.50
2023-02-06T23:40:05.666Z,12.83
2023-02-06T23:45:08.903Z,13.13
2023-02-06T23:50:11.697Z,14.93
2023-02-06T23:55:14.699Z,15.60
